createdAt,value
2023-05-25T00:01:50.302Z,10.80
2023-05-25T00:04:19.825Z,10.90
2023-05-25T00:06:47.902Z,11.00
2023-05-25T00:09:15.570Z,11.00
2023-05-25T00:11:43.304Z,10.90
2023-05-25T00:14:11.043Z,10.80
2023-05-25T00:16:41.043Z,10.90
2023-05-25T00:19:11.330Z,11.00
2023-05-25T00:21:38.900Z,11.00
2023-05-25T00:24:06.711Z,10.90
2023-05-25T00:26:37.698Z,10.80
2023-05-25T00:29:05.875Z,10.80
2023-05-25T00:31:33.735Z,10.70
2023-05-25T00:34:01.547Z,10.70
2023-05-25T00:36:29.144Z,10.40
2023-05-25T00:38:56.784Z,10.30
2023-05-25T00:41:26.485Z,10.30
2023-05-25T00:43:53.953Z,10.20
2023-05-25T00:46:22.756Z,10.40
2023-05-25T00:48:54.782Z,10.30
2023-05-25T00:51:22.762Z,10.30
2023-05-25T00:53:50.427Z,10.20
2023-05-25T00:56:29.320Z,10.30
2023-05-25T00:59:00.796Z,10.30
2023-05-25T01:01:33.653Z,10.40
2023-05-25T01:04:03.975Z,10.40
2023-05-25T01:06:34.178Z,10.30
2023-05-25T01:09:05.282Z,10.20
2023-05-25T01:11:36.446Z,10.20
2023-05-25T01:14:04.176Z,10.10
2023-05-25T01:16:32.410Z,10.10
2023-05-25T01:18:59.959Z,10.10
2023-05-25T01:21:38.073Z,10.20
2023-05-25T01:24:17.786Z,10.20
2023-05-25T01:27:06.576Z,10.10
2023-05-25T01:29:35.872Z,10.20
2023-05-25T01:32:04.874Z,10.20
2023-05-25T01:34:33.359Z,10.10
2023-05-25T01:37:01.500Z,10.10
2023-05-25T01:39:29.042Z,10.10
2023-05-25T01:41:56.538Z,10.10
2023-05-25T01:44:24.674Z,10.00
2023-05-25T01:47:04.155Z,9.90
2023-05-25T01:49:50.095Z,9.90
2023-05-25T01:52:32.535Z,9.90
2023-05-25T01:55:11.252Z,9.90
2023-05-25T01:57:43.620Z,10.00
2023-05-25T02:00:13.530Z,9.90
2023-05-25T02:02:44.441Z,9.90
2023-05-25T02:05:12.730Z,9.90
2023-05-25T02:07:40.380Z,9.80
2023-05-25T02:10:08.660Z,9.70
2023-05-25T02:12:36.438Z,9.80
2023-05-25T02:15:05.027Z,9.80
2023-05-25T02:17:32.672Z,9.70
2023-05-25T02:20:00.339Z,9.70
2023-05-25T02:22:27.934Z,9.70
2023-05-25T02:24:55.764Z,9.60
2023-05-25T02:27:23.286Z,9.70
2023-05-25T02:29:51.011Z,9.70
2023-05-25T02:32:18.597Z,9.80
2023-05-25T02:34:47.297Z,9.80
2023-05-25T02:37:14.960Z,9.80
2023-05-25T02:39:42.548Z,9.90
2023-05-25T02:42:10.242Z,9.80
2023-05-25T02:44:37.823Z,9.60
2023-05-25T02:47:07.136Z,9.50
2023-05-25T02:49:34.796Z,9.50
2023-05-25T02:52:02.308Z,9.50
2023-05-25T02:54:30.203Z,9.50
2023-05-25T02:56:57.872Z,9.50
2023-05-25T02:59:25.473Z,9.50
2023-05-25T03:01:53.072Z,9.40
2023-05-25T03:04:20.639Z,9.30
2023-05-25T03:06:48.449Z,9.30
2023-05-25T03:09:16.197Z,9.30
2023-05-25T03:11:43.723Z,9.40
2023-05-25T03:14:11.587Z,9.40
2023-05-25T03:16:39.395Z,9.50
2023-05-25T03:19:07.617Z,9.60
2023-05-25T03:21:35.211Z,9.60
2023-05-25T03:24:02.798Z,9.60
2023-05-25T03:26:30.836Z,9.40
2023-05-25T03:28:58.434Z,9.40
2023-05-25T03:31:26.244Z,9.40
2023-05-25T03:33:53.808Z,9.40
2023-05-25T03:36:22.378Z,9.40
2023-05-25T03:38:50.332Z,9.40
2023-05-25T03:41:17.817Z,9.40
2023-05-25T03:43:45.618Z,9.20
2023-05-25T03:46:13.187Z,9.20
2023-05-25T03:48:40.858Z,9.20
2023-05-25T03:51:08.345Z,9.10
2023-05-25T03:53:37.198Z,9.10
2023-05-25T03:56:05.098Z,9.30
2023-05-25T03:58:32.753Z,9.20
2023-05-25T04:01:00.375Z,9.20
2023-05-25T04:03:28.170Z,9.20
2023-05-25T04:05:58.436Z,9.20
2023-05-25T04:08:26.622Z,9.20
2023-05-25T04:10:54.181Z,9.40
2023-05-25T04:13:21.729Z,9.50
2023-05-25T04:15:51.241Z,9.50
2023-05-25T04:18:19.394Z,9.40
2023-05-25T04:20:47.885Z,9.50
2023-05-25T04:23:15.557Z,9.50
2023-05-25T04:25:43.331Z,9.60
2023-05-25T04:28:12.509Z,9.80
2023-05-25T04:30:41.802Z,9.90
2023-05-25T04:33:11.807Z,10.00
2023-05-25T04:35:40.938Z,10.20
2023-05-25T04:38:08.579Z,10.30
2023-05-25T04:40:36.114Z,10.80
2023-05-25T04:43:03.657Z,11.70
2023-05-25T04:45:33.587Z,12.70
2023-05-25T04:48:01.858Z,13.90
2023-05-25T04:50:29.620Z,15.10
2023-05-25T04:52:57.991Z,16.40
2023-05-25T04:55:25.701Z,17.20
2023-05-25T04:57:56.111Z,18.10
2023-05-25T05:00:23.723Z,18.80
2023-05-25T05:02:54.330Z,19.40
2023-05-25T05:05:22.338Z,19.90
2023-05-25T05:07:49.979Z,20.20
2023-05-25T05:10:17.993Z,20.80
2023-05-25T05:12:45.918Z,21.10
2023-05-25T05:15:13.528Z,21.40
2023-05-25T05:17:41.022Z,22.00
2023-05-25T05:20:09.440Z,22.40
2023-05-25T05:22:38.098Z,22.60
2023-05-25T05:25:06.389Z,22.80
2023-05-25T05:27:34.795Z,23.00
2023-05-25T05:30:02.821Z,23.50
2023-05-25T05:32:30.769Z,23.60
2023-05-25T05:34:58.342Z,22.70
2023-05-25T05:37:25.920Z,21.90
2023-05-25T05:39:53.578Z,22.00
2023-05-25T05:42:21.270Z,22.60
2023-05-25T05:44:48.970Z,23.20
2023-05-25T05:47:16.961Z,24.80
2023-05-25T05:49:44.568Z,26.10
2023-05-25T05:52:12.202Z,25.40
2023-05-25T05:54:39.756Z,24.80
2023-05-25T05:57:07.414Z,23.80
2023-05-25T05:59:35.150Z,23.70
2023-05-25T06:02:02.728Z,24.00
2023-05-25T06:04:30.419Z,23.70
2023-05-25T06:06:58.702Z,22.80
2023-05-25T06:09:29.303Z,23.00
2023-05-25T06:11:56.904Z,21.40
2023-05-25T06:14:26.081Z,23.40
2023-05-25T06:16:55.149Z,22.90
2023-05-25T06:19:22.873Z,24.20
2023-05-25T06:21:50.886Z,23.70
2023-05-25T06:24:18.422Z,23.70
2023-05-25T06:26:45.927Z,20.20
2023-05-25T06:29:16.894Z,22.20
2023-05-25T06:31:45.018Z,22.60
2023-05-25T06:34:12.705Z,23.70
2023-05-25T06:36:41.793Z,23.40
2023-05-25T06:39:09.427Z,24.30
2023-05-25T06:41:38.649Z,25.70
2023-05-25T06:44:06.559Z,26.90
2023-05-25T06:46:34.123Z,26.80
2023-05-25T06:49:02.232Z,26.90
2023-05-25T06:51:29.863Z,26.20
2023-05-25T06:53:57.494Z,25.60
2023-05-25T06:56:25.234Z,25.50
2023-05-25T06:58:52.847Z,25.60
2023-05-25T07:01:20.636Z,25.40
2023-05-25T07:03:48.152Z,25.40
2023-05-25T07:06:17.308Z,26.20
2023-05-25T07:08:44.899Z,25.20
2023-05-25T07:11:14.389Z,24.40
2023-05-25T07:13:42.487Z,24.90
2023-05-25T07:16:10.004Z,26.00
2023-05-25T07:18:40.983Z,26.80
2023-05-25T07:21:10.299Z,27.20
2023-05-25T07:23:38.298Z,28.20
2023-05-25T07:26:06.412Z,29.20
2023-05-25T07:28:34.160Z,29.10
2023-05-25T07:31:01.777Z,28.90
2023-05-25T07:33:29.330Z,28.90
2023-05-25T07:35:56.954Z,28.10
2023-05-25T07:38:24.477Z,27.40
2023-05-25T07:40:52.878Z,27.00
2023-05-25T07:43:20.585Z,27.70
2023-05-25T07:45:48.143Z,27.80
2023-05-25T07:48:16.120Z,28.00
2023-05-25T07:50:43.874Z,27.20
2023-05-25T07:53:11.475Z,25.50
2023-05-25T07:55:38.982Z,26.70
2023-05-25T07:58:07.819Z,26.50
2023-05-25T08:00:35.642Z,26.60
2023-05-25T08:03:03.395Z,27.70
2023-05-25T08:05:31.117Z,28.80
2023-05-25T08:07:58.660Z,29.10
2023-05-25T08:10:31.530Z,28.80
2023-05-25T08:12:59.457Z,28.00
2023-05-25T08:15:27.503Z,27.30
2023-05-25T08:17:56.768Z,26.30
2023-05-25T08:20:27.397Z,26.00
2023-05-25T08:22:55.156Z,25.70
2023-05-25T08:25:22.717Z,25.10
2023-05-25T08:27:50.335Z,24.90
2023-05-25T08:30:18.024Z,27.00
2023-05-25T08:32:45.569Z,25.70
2023-05-25T08:35:14.375Z,24.00
2023-05-25T08:37:43.688Z,24.10
2023-05-25T08:40:16.600Z,24.20
2023-05-25T08:42:45.881Z,24.60
2023-05-25T08:45:22.998Z,25.40
2023-05-25T08:48:04.993Z,26.50
2023-05-25T08:50:34.028Z,27.20
2023-05-25T08:53:05.287Z,25.60
2023-05-25T08:55:37.974Z,24.80
2023-05-25T08:58:16.557Z,25.90
2023-05-25T09:00:51.680Z,25.40
2023-05-25T09:03:20.022Z,26.80
2023-05-25T09:05:47.936Z,26.80
2023-05-25T09:08:17.085Z,25.00
2023-05-25T09:10:44.723Z,23.40
2023-05-25T09:13:21.928Z,23.60
2023-05-25T09:15:51.063Z,26.60
2023-05-25T09:18:18.717Z,28.50
2023-05-25T09:20:47.330Z,28.90
2023-05-25T09:23:15.937Z,28.60
2023-05-25T09:25:44.769Z,28.00
2023-05-25T09:28:26.318Z,27.50
2023-05-25T09:30:55.449Z,27.30
2023-05-25T09:33:23.323Z,27.00
2023-05-25T09:35:51.806Z,28.70
2023-05-25T09:38:19.854Z,28.10
2023-05-25T09:40:47.822Z,26.70
2023-05-25T09:43:28.451Z,25.60
2023-05-25T09:46:04.347Z,24.70
2023-05-25T09:48:32.417Z,23.90
2023-05-25T09:50:59.983Z,23.70
2023-05-25T09:53:28.032Z,22.90
2023-05-25T09:55:56.946Z,22.20
2023-05-25T09:58:27.560Z,22.10
2023-05-25T10:00:56.068Z,21.90
2023-05-25T10:03:23.834Z,21.70
2023-05-25T10:05:53.590Z,22.70
2023-05-25T10:08:22.044Z,24.60
2023-05-25T10:10:50.327Z,25.10
2023-05-25T10:13:30.124Z,25.60
2023-05-25T10:15:59.494Z,26.90
2023-05-25T10:18:29.428Z,26.90
2023-05-25T10:21:03.614Z,26.90
2023-05-25T10:23:42.111Z,25.10
2023-05-25T10:26:13.837Z,24.60
2023-05-25T10:28:44.674Z,23.90
2023-05-25T10:31:14.126Z,24.00
2023-05-25T10:33:43.330Z,24.00
2023-05-25T10:36:15.460Z,22.80
2023-05-25T10:38:44.970Z,21.70
2023-05-25T10:41:14.378Z,21.00
2023-05-25T10:43:43.781Z,22.40
2023-05-25T10:46:12.860Z,22.30
2023-05-25T10:48:46.039Z,21.20
2023-05-25T10:51:14.461Z,21.80
2023-05-25T10:53:46.982Z,23.30
2023-05-25T10:56:14.830Z,23.00
2023-05-25T10:58:46.864Z,23.10
2023-05-25T11:01:16.564Z,22.70
2023-05-25T11:03:57.395Z,22.20
2023-05-25T11:06:48.162Z,23.20
2023-05-25T11:09:33.950Z,23.00
2023-05-25T11:12:03.895Z,23.20
2023-05-25T11:14:37.359Z,23.70
2023-05-25T11:17:12.011Z,24.80
2023-05-25T11:19:43.535Z,24.40
2023-05-25T11:22:18.117Z,25.40
2023-05-25T11:24:46.634Z,24.60
2023-05-25T11:27:14.343Z,23.50
2023-05-25T11:29:41.970Z,23.40
2023-05-25T11:32:14.573Z,22.50
2023-05-25T11:34:46.806Z,22.20
2023-05-25T11:37:21.403Z,22.20
2023-05-25T11:39:51.735Z,22.20
2023-05-25T11:42:24.549Z,21.90
2023-05-25T11:44:52.494Z,21.60
2023-05-25T11:47:25.228Z,21.60
2023-05-25T11:49:56.668Z,22.00
2023-05-25T11:52:24.400Z,21.90
2023-05-25T11:54:53.418Z,21.90
2023-05-25T11:57:25.374Z,21.50
2023-05-25T11:59:55.702Z,21.10
2023-05-25T12:02:24.766Z,20.40
2023-05-25T12:05:00.240Z,20.60
2023-05-25T12:07:30.798Z,20.70
2023-05-25T12:10:14.100Z,21.10
2023-05-25T12:12:50.450Z,21.30
2023-05-25T12:15:22.732Z,20.40
2023-05-25T12:17:51.802Z,20.80
2023-05-25T12:20:20.149Z,20.50
2023-05-25T12:22:48.169Z,20.60
2023-05-25T12:25:20.134Z,21.00
2023-05-25T12:27:47.676Z,20.90
2023-05-25T12:30:15.367Z,20.90
2023-05-25T12:33:01.913Z,21.00
2023-05-25T12:35:44.240Z,20.90
2023-05-25T12:38:17.744Z,20.30
2023-05-25T12:40:46.088Z,19.80
2023-05-25T12:43:17.064Z,20.00
2023-05-25T12:45:45.064Z,20.10
2023-05-25T12:48:12.921Z,20.40
2023-05-25T12:50:57.293Z,20.80
2023-05-25T12:53:25.504Z,20.60
2023-05-25T12:56:03.632Z,20.40
2023-05-25T12:58:31.228Z,20.70
2023-05-25T13:00:58.838Z,20.30
2023-05-25T13:03:26.540Z,20.50
2023-05-25T13:06:01.021Z,20.10
2023-05-25T13:08:29.472Z,20.00
2023-05-25T13:10:57.091Z,20.10
2023-05-25T13:13:24.708Z,20.30
2023-05-25T13:15:52.402Z,20.00
2023-05-25T13:18:20.048Z,19.90
2023-05-25T13:20:50.422Z,20.10
2023-05-25T13:23:19.447Z,20.30
2023-05-25T13:25:47.419Z,20.20
2023-05-25T13:28:14.970Z,20.00
2023-05-25T13:30:43.253Z,19.90
2023-05-25T13:33:11.200Z,19.60
2023-05-25T13:35:46.027Z,19.50
2023-05-25T13:38:15.229Z,19.80
2023-05-25T13:40:45.619Z,20.30
2023-05-25T13:43:13.482Z,20.60
2023-05-25T13:45:41.521Z,20.90
2023-05-25T13:48:09.194Z,20.40
2023-05-25T13:50:36.799Z,19.90
2023-05-25T13:53:04.396Z,19.90
2023-05-25T13:55:32.010Z,19.90
2023-05-25T13:57:59.542Z,19.70
2023-05-25T14:00:28.069Z,19.60
2023-05-25T14:02:55.876Z,19.60
2023-05-25T14:05:23.703Z,19.60
2023-05-25T14:07:52.987Z,19.60
2023-05-25T14:10:21.189Z,19.30
2023-05-25T14:12:49.334Z,19.40
2023-05-25T14:15:17.228Z,19.50
2023-05-25T14:17:44.883Z,19.70
2023-05-25T14:20:16.186Z,19.90
2023-05-25T14:22:43.934Z,20.40
2023-05-25T14:25:11.635Z,20.70
2023-05-25T14:27:39.244Z,20.80
2023-05-25T14:30:07.736Z,20.50
2023-05-25T14:32:35.305Z,21.00
2023-05-25T14:35:02.854Z,21.30
2023-05-25T14:37:30.538Z,21.80
2023-05-25T14:39:58.205Z,21.50
2023-05-25T14:42:25.816Z,20.80
2023-05-25T14:44:53.417Z,20.40
2023-05-25T14:47:21.954Z,20.10
2023-05-25T14:49:49.607Z,20.00
2023-05-25T14:52:17.223Z,20.20
2023-05-25T14:54:45.650Z,20.40
2023-05-25T14:57:15.905Z,20.30
2023-05-25T14:59:43.586Z,20.30
2023-05-25T15:02:11.282Z,20.20
2023-05-25T15:04:38.904Z,20.20
2023-05-25T15:07:06.692Z,20.40
2023-05-25T15:09:34.516Z,20.90
2023-05-25T15:12:02.600Z,21.00
2023-05-25T15:14:30.289Z,20.90
2023-05-25T15:16:57.906Z,20.50
2023-05-25T15:19:25.592Z,20.60
2023-05-25T15:21:53.598Z,20.60
2023-05-25T15:24:21.785Z,20.70
2023-05-25T15:26:49.498Z,20.60
2023-05-25T15:29:17.158Z,20.70
2023-05-25T15:31:45.613Z,20.40
2023-05-25T15:34:13.204Z,20.10
2023-05-25T15:36:40.898Z,20.20
2023-05-25T15:39:09.187Z,20.60
2023-05-25T15:41:36.760Z,21.10
2023-05-25T15:44:08.364Z,21.30
2023-05-25T15:46:36.214Z,21.00
2023-05-25T15:49:03.865Z,21.10
2023-05-25T15:51:32.879Z,21.00
2023-05-25T15:54:00.446Z,20.60
2023-05-25T15:56:27.947Z,20.10
2023-05-25T15:58:55.655Z,19.90
2023-05-25T16:01:23.377Z,19.70
2023-05-25T16:03:51.023Z,19.80
2023-05-25T16:06:18.714Z,20.10
2023-05-25T16:08:46.364Z,19.90
2023-05-25T16:11:13.941Z,19.90
2023-05-25T16:13:41.610Z,19.80
2023-05-25T16:16:09.930Z,19.70
2023-05-25T16:18:37.548Z,19.50
2023-05-25T16:21:05.538Z,19.40
2023-05-25T16:23:33.089Z,19.30
2023-05-25T16:26:00.760Z,19.40
2023-05-25T16:28:28.344Z,19.40
2023-05-25T16:30:55.923Z,19.70
2023-05-25T16:33:23.450Z,19.90
2023-05-25T16:35:53.855Z,20.20
2023-05-25T16:38:21.414Z,20.30
2023-05-25T16:40:48.981Z,19.90
2023-05-25T16:43:16.718Z,19.50
2023-05-25T16:45:44.406Z,19.20
2023-05-25T16:48:12.352Z,19.00
2023-05-25T16:50:40.139Z,18.90
2023-05-25T16:53:07.690Z,19.00
2023-05-25T16:55:35.231Z,18.90
2023-05-25T16:58:02.864Z,18.90
2023-05-25T17:00:30.526Z,19.00
2023-05-25T17:02:58.168Z,19.10
2023-05-25T17:05:25.938Z,19.20
2023-05-25T17:07:53.588Z,19.20
2023-05-25T17:10:21.285Z,19.00
2023-05-25T17:12:48.868Z,19.00
2023-05-25T17:15:16.441Z,18.90
2023-05-25T17:17:44.161Z,18.80
2023-05-25T17:20:11.932Z,18.70
2023-05-25T17:22:39.655Z,18.70
2023-05-25T17:25:09.189Z,18.90
2023-05-25T17:27:36.765Z,19.10
2023-05-25T17:30:05.180Z,19.30
2023-05-25T17:32:32.926Z,19.50
2023-05-25T17:35:00.736Z,19.60
2023-05-25T17:37:28.452Z,19.80
2023-05-25T17:39:56.047Z,19.80
2023-05-25T17:42:23.645Z,19.50
2023-05-25T17:44:51.202Z,19.10
2023-05-25T17:47:18.988Z,18.90
2023-05-25T17:49:46.826Z,18.90
2023-05-25T17:52:14.407Z,18.80
2023-05-25T17:54:41.975Z,18.70
2023-05-25T17:57:09.913Z,18.60
2023-05-25T17:59:37.551Z,18.60
2023-05-25T18:02:05.463Z,18.60
2023-05-25T18:04:33.164Z,18.50
2023-05-25T18:07:00.745Z,18.50
2023-05-25T18:09:28.424Z,18.50
2023-05-25T18:11:56.631Z,18.50
2023-05-25T18:14:24.158Z,18.50
2023-05-25T18:16:51.930Z,18.50
2023-05-25T18:19:20.808Z,18.40
2023-05-25T18:21:49.472Z,18.30
2023-05-25T18:24:17.192Z,18.30
2023-05-25T18:26:46.494Z,18.20
2023-05-25T18:29:14.100Z,18.10
2023-05-25T18:31:46.508Z,18.00
2023-05-25T18:34:14.413Z,18.00
2023-05-25T18:36:42.109Z,18.20
2023-05-25T18:39:10.157Z,18.10
2023-05-25T18:41:39.678Z,17.90
2023-05-25T18:44:08.182Z,17.80
2023-05-25T18:46:38.385Z,17.80
2023-05-25T18:49:06.185Z,17.80
2023-05-25T18:51:34.775Z,17.80
2023-05-25T18:54:02.501Z,17.80
2023-05-25T18:56:30.081Z,17.80
2023-05-25T18:58:57.767Z,17.70
2023-05-25T19:01:28.424Z,17.80
2023-05-25T19:03:58.444Z,17.80
2023-05-25T19:06:27.413Z,17.70
2023-05-25T19:08:55.534Z,17.60
2023-05-25T19:11:23.204Z,17.40
2023-05-25T19:13:50.764Z,17.50
2023-05-25T19:16:18.452Z,17.40
2023-05-25T19:18:47.188Z,17.40
2023-05-25T19:21:14.730Z,17.40
2023-05-25T19:23:42.595Z,17.50
2023-05-25T19:26:10.127Z,17.40
2023-05-25T19:28:37.665Z,17.30
2023-05-25T19:31:05.351Z,17.00
2023-05-25T19:33:32.920Z,16.80
2023-05-25T19:36:00.492Z,16.70
2023-05-25T19:38:31.494Z,16.50
2023-05-25T19:41:08.226Z,16.30
2023-05-25T19:43:36.313Z,16.20
2023-05-25T19:46:04.223Z,16.20
2023-05-25T19:48:32.000Z,16.20
2023-05-25T19:51:01.129Z,16.00
2023-05-25T19:53:30.188Z,16.00
2023-05-25T19:55:57.942Z,16.00
2023-05-25T19:58:25.558Z,16.00
2023-05-25T20:00:53.440Z,15.90
2023-05-25T20:03:21.276Z,16.00
2023-05-25T20:05:48.990Z,15.90
2023-05-25T20:08:16.641Z,15.90
2023-05-25T20:10:45.247Z,16.00
2023-05-25T20:13:12.871Z,15.70
2023-05-25T20:15:41.044Z,15.50
2023-05-25T20:18:08.684Z,15.40
2023-05-25T20:20:36.375Z,15.20
2023-05-25T20:23:04.244Z,15.10
2023-05-25T20:25:31.923Z,15.00
2023-05-25T20:27:59.758Z,14.90
2023-05-25T20:30:27.558Z,14.80
2023-05-25T20:32:55.265Z,14.70
2023-05-25T20:35:23.105Z,14.60
2023-05-25T20:37:50.761Z,14.60
2023-05-25T20:40:18.339Z,14.60
2023-05-25T20:42:45.949Z,14.60
2023-05-25T20:45:13.579Z,14.50
2023-05-25T20:47:41.223Z,14.40
2023-05-25T20:50:08.964Z,14.40
2023-05-25T20:52:36.749Z,14.40
2023-05-25T20:55:04.602Z,14.20
2023-05-25T20:57:32.179Z,14.30
2023-05-25T21:00:00.213Z,14.10
2023-05-25T21:05:11.015Z,14.20
2023-05-25T21:07:38.651Z,14.10
2023-05-25T21:10:06.776Z,13.90
2023-05-25T21:12:35.194Z,14.00
2023-05-25T21:15:04.019Z,13.80
2023-05-25T21:17:31.548Z,13.70
2023-05-25T21:19:59.230Z,13.80
2023-05-25T21:22:27.242Z,13.80
2023-05-25T21:24:54.798Z,13.80
2023-05-25T21:27:22.435Z,13.60
2023-05-25T21:29:50.295Z,13.50
2023-05-25T21:32:18.108Z,13.50
2023-05-25T21:34:45.732Z,13.60
2023-05-25T21:37:13.284Z,13.50
2023-05-25T21:39:40.961Z,13.50
2023-05-25T21:42:09.724Z,13.50
2023-05-25T21:44:37.308Z,13.40
2023-05-25T21:47:05.283Z,13.20
2023-05-25T21:49:33.315Z,13.20
2023-05-25T21:52:00.918Z,13.20
2023-05-25T21:54:28.534Z,13.20
2023-05-25T21:56:56.238Z,13.00
2023-05-25T21:59:24.009Z,13.00
2023-05-25T22:01:51.629Z,13.10
2023-05-25T22:04:19.237Z,13.10
2023-05-25T22:06:47.020Z,13.00
2023-05-25T22:09:14.757Z,13.00
2023-05-25T22:11:42.882Z,13.00
2023-05-25T22:14:10.494Z,12.90
2023-05-25T22:16:38.098Z,12.90
2023-05-25T22:19:05.853Z,12.90
2023-05-25T22:21:33.434Z,12.70
2023-05-25T22:24:01.067Z,12.70
2023-05-25T22:26:29.483Z,12.70
2023-05-25T22:28:57.406Z,12.70
2023-05-25T22:31:26.618Z,12.70
2023-05-25T22:33:54.337Z,12.60
2023-05-25T22:36:21.912Z,12.50
2023-05-25T22:38:49.471Z,12.40
2023-05-25T22:41:17.142Z,12.30
2023-05-25T22:43:44.976Z,12.30
2023-05-25T22:46:12.980Z,12.20
2023-05-25T22:48:40.945Z,12.20
2023-05-25T22:51:08.602Z,12.30
2023-05-25T22:53:36.129Z,12.20
2023-05-25T22:56:03.954Z,12.20
2023-05-25T22:58:31.467Z,12.20
2023-05-25T23:00:59.029Z,12.20
2023-05-25T23:03:26.785Z,12.20
2023-05-25T23:05:54.537Z,12.20
2023-05-25T23:08:22.135Z,12.10
2023-05-25T23:13:31.283Z,12.00
2023-05-25T23:15:59.825Z,12.00
2023-05-25T23:18:27.380Z,12.00
2023-05-25T23:20:54.917Z,12.00
2023-05-25T23:23:22.497Z,12.00
2023-05-25T23:25:50.071Z,12.00
2023-05-25T23:28:17.818Z,12.00
2023-05-25T23:30:45.431Z,12.00
2023-05-25T23:33:12.999Z,11.90
2023-05-25T23:35:40.537Z,11.70
2023-05-25T23:38:08.165Z,11.70
2023-05-25T23:40:35.802Z,11.80
2023-05-25T23:43:03.393Z,11.90
2023-05-25T23:45:31.035Z,11.90
2023-05-25T23:47:58.674Z,11.80
2023-05-25T23:50:26.237Z,11.80
2023-05-25T23:52:53.846Z,11.70
2023-05-25T23:55:21.930Z,11.60
2023-05-25T23:57:49.603Z,11.50
